Time;durP1;ratioP1;P1;durP2;ratioP2;P2;SDS_P1;SDS_P2;PMS_P1;PMS_P2;Temp;Humidity;BMP_temperature;BMP_pressure;BME280_temperature;BME280_humidity;BME280_pressure;Samples;Min_cycle;Max_cycle;Signal;HPM_P1;HPM_P2
2022/06/11 00:01:12;;;;;;;4.25;2.88;;;;;;;18.34;60.20;98765.59;5124740;28;20513;-91
2022/06/11 00:03:39;;;;;;;6.50;3.10;;;;;;;18.30;60.03;98766.75;5133936;27;20031;-94
2022/06/11 00:06:06;;;;;;;4.47;3.08;;;;;;;18.41;60.01;98787.66;5134707;28;20041;-94
2022/06/11 00:08:35;;;;;;;4.97;2.70;;;;;;;18.36;59.75;98776.28;5134077;28;20388;-94
2022/06/11 00:11:10;;;;;;;4.00;2.88;;;;;;;18.38;59.98;98790.53;5134039;27;20036;-94
2022/06/11 00:13:39;;;;;;;3.92;2.70;;;;;;;18.25;60.13;98775.09;5132807;27;20079;-93
2022/06/11 00:16:06;;;;;;;6.07;3.67;;;;;;;18.35;60.38;98796.13;5131477;28;20065;-93
2022/06/11 00:18:33;;;;;;;5.65;3.08;;;;;;;18.36;60.19;98789.75;5130904;27;20043;-93
2022/06/11 00:20:59;;;;;;;4.40;2.95;;;;;;;18.42;59.91;98800.19;5134078;27;20043;-95
2022/06/11 00:23:26;;;;;;;6.20;3.05;;;;;;;18.48;59.55;98792.59;5131158;27;20035;-95
2022/06/11 00:25:52;;;;;;;6.47;3.00;;;;;;;18.48;60.46;98797.97;5132157;27;20035;-94
2022/06/11 00:28:19;;;;;;;4.97;3.25;;;;;;;18.46;59.86;98799.03;5131724;27;20042;-92
2022/06/11 00:30:47;;;;;;;4.78;3.13;;;;;;;18.31;61.63;98792.72;5130012;28;20492;-94
2022/06/11 00:33:13;;;;;;;;;;;;;;;18.13;63.13;98809.91;5132338;27;20039;-93
2022/06/11 00:35:40;;;;;;;5.65;3.00;;;;;;;17.78;64.99;98812.75;5131006;27;20410;-94
2022/06/11 00:38:07;;;;;;;5.07;3.00;;;;;;;17.51;65.20;98797.19;5131302;27;20438;-93
2022/06/11 00:40:35;;;;;;;4.95;2.90;;;;;;;17.42;66.32;98812.03;5131009;27;20043;-92
2022/06/11 00:43:02;;;;;;;6.70;3.22;;;;;;;17.23;67.05;98803.22;5130738;28;20071;-93
2022/06/11 00:45:32;;;;;;;5.82;2.97;;;;;;;17.08;67.62;98795.97;5130910;27;20056;-92
2022/06/11 00:48:03;;;;;;;4.38;2.80;;;;;;;17.06;67.98;98809.47;5131160;28;20042;-93
2022/06/11 00:50:37;;;;;;;5.50;2.92;;;;;;;16.78;68.74;98786.72;5130513;28;20032;-92
2022/06/11 00:53:10;;;;;;;5.70;3.10;;;;;;;16.60;69.52;98799.28;5131207;27;20396;-96
2022/06/11 00:55:38;;;;;;;5.03;3.58;;;;;;;16.62;69.86;98808.13;5129881;28;20047;-94
2022/06/11 00:58:08;;;;;;;7.47;3.40;;;;;;;16.58;69.96;98813.75;5130047;28;20051;-93
2022/06/11 01:00:41;;;;;;;6.20;3.38;;;;;;;16.38;70.25;98802.19;5130527;27;20138;-93
2022/06/11 01:03:09;;;;;;;6.55;3.30;;;;;;;16.35;70.55;98812.19;5131366;27;20104;-92
2022/06/11 01:05:38;;;;;;;5.07;3.47;;;;;;;16.33;69.96;98803.34;5131099;27;20070;-93
2022/06/11 01:08:28;;;;;;;;;;;;;;;16.37;70.88;98811.22;5125485;28;20280;-92
2022/06/11 01:11:12;;;;;;;4.72;3.40;;;;;;;16.55;69.36;98801.34;5115034;28;19976;-95
2022/06/11 01:13:49;;;;;;;6.75;3.60;;;;;;;16.59;68.72;98793.97;5116594;28;20039;-93
2022/06/11 01:16:23;;;;;;;5.88;3.33;;;;;;;16.69;68.68;98802.44;5116605;28;20048;-94
2022/06/11 01:18:57;;;;;;;5.97;3.20;;;;;;;16.75;67.55;98794.09;5117311;28;20435;-93
2022/06/11 01:21:34;;;;;;;5.65;3.40;;;;;;;16.81;67.51;98788.44;5117218;28;20105;-94
2022/06/11 01:24:23;;;;;;;5.30;3.03;;;;;;;16.91;67.39;98803.09;5115878;28;20036;-93
2022/06/11 01:27:34;;;;;;;5.53;3.40;;;;;;;16.84;68.37;98801.69;5115182;27;20032;-93
2022/06/11 01:30:04;;;;;;;5.38;3.25;;;;;;;16.92;67.18;98793.25;5117884;28;20036;-93
2022/06/11 01:32:46;;;;;;;7.03;3.10;;;;;;;17.13;66.02;98793.91;5117436;28;20565;-93
2022/06/11 01:35:27;;;;;;;6.68;3.42;;;;;;;17.12;65.60;98768.84;5116999;28;20039;-96
2022/06/11 01:37:57;;;;;;;5.88;3.22;;;;;;;17.37;64.89;98797.97;5119270;28;20039;-94
2022/06/11 01:40:37;;;;;;;5.28;3.20;;;;;;;17.38;64.87;98782.72;5117714;28;20046;-95
2022/06/11 01:43:14;;;;;;;5.15;3.60;;;;;;;17.42;64.48;98786.97;5117367;28;20168;-95
2022/06/11 01:45:42;;;;;;;4.93;3.28;;;;;;;17.25;64.76;98769.06;5118005;28;20043;-94
2022/06/11 01:48:15;;;;;;;5.50;3.20;;;;;;;17.34;64.93;98797.25;5117438;28;20075;-95
2022/06/11 01:50:45;;;;;;;5.05;3.13;;;;;;;17.29;65.15;98788.59;5116776;28;20040;-94
2022/06/11 01:53:37;;;;;;;6.80;3.42;;;;;;;17.22;64.90;98782.69;5118854;28;20047;-93
2022/06/11 01:56:26;;;;;;;6.70;3.60;;;;;;;17.23;64.89;98796.00;5112865;28;20067;-95
2022/06/11 01:59:08;;;;;;;6.95;4.10;;;;;;;17.36;64.50;98804.28;5097798;28;20043;-95
2022/06/11 02:01:51;;;;;;;6.53;3.20;;;;;;;17.17;65.48;98785.59;5114835;28;20100;-93
2022/06/11 02:04:29;;;;;;;5.20;3.22;;;;;;;17.14;65.02;98784.91;5117774;28;20088;-94
2022/06/11 02:07:02;;;;;;;5.10;3.05;;;;;;;17.12;65.58;98802.94;5117337;28;20039;-94
2022/06/11 02:09:35;;;;;;;7.43;3.05;;;;;;;17.07;65.80;98804.97;5117232;28;20441;-93
2022/06/11 02:12:07;;;;;;;7.85;3.47;;;;;;;16.98;65.92;98796.47;5111521;28;20138;-94
2022/06/11 02:14:39;;;;;;;5.60;3.17;;;;;;;16.87;66.19;98787.22;5115040;28;20043;-94
2022/06/11 02:17:10;;;;;;;6.45;3.00;;;;;;;16.79;66.53;98795.66;5116783;28;20043;-93
2022/06/11 02:19:41;;;;;;;5.35;3.20;;;;;;;16.81;66.95;98823.34;5108991;28;20047;-93
2022/06/11 02:22:13;;;;;;;6.13;3.10;;;;;;;16.72;67.27;98815.69;5114961;28;20052;-93
2022/06/11 02:24:46;;;;;;;4.57;2.97;;;;;;;16.60;67.62;98807.34;5118592;28;20042;-93
2022/06/11 02:27:16;;;;;;;6.72;3.83;;;;;;;16.46;67.83;98787.50;5118168;28;20042;-94
2022/06/11 02:29:44;;;;;;;5.85;3.30;;;;;;;16.62;67.42;98804.59;5117708;28;20043;-93
2022/06/11 02:32:15;;;;;;;5.40;3.47;;;;;;;16.63;67.57;98795.56;5116907;28;20047;-93
2022/06/11 02:34:45;;;;;;;6.10;3.40;;;;;;;16.67;67.73;98796.28;5119171;28;20042;-93
2022/06/11 02:37:21;;;;;;;6.22;3.60;;;;;;;16.68;67.65;98787.31;5118619;28;20511;-94
2022/06/11 02:39:48;;;;;;;5.78;3.40;;;;;;;16.57;67.65;98775.28;5119187;28;20044;-94
2022/06/11 02:42:17;;;;;;;6.78;3.55;;;;;;;16.62;68.27;98788.47;5117928;28;20053;-96
2022/06/11 02:44:43;;;;;;;;;;;;;;;16.70;67.89;98812.22;5118274;28;20043;-95
2022/06/11 02:47:12;;;;;;;6.55;3.42;;;;;;;16.59;68.22;98796.66;5117090;27;19923;-94
2022/06/11 02:49:39;;;;;;;5.80;3.60;;;;;;;16.57;68.22;98791.41;5117922;28;20044;-92
2022/06/11 02:52:07;;;;;;;6.57;3.35;;;;;;;16.54;68.20;98786.16;5116635;28;20392;-95
2022/06/11 02:54:34;;;;;;;5.88;3.70;;;;;;;16.66;68.21;98806.16;5117872;27;20136;-94
2022/06/11 02:57:03;;;;;;;4.78;3.30;;;;;;;16.61;68.41;98798.34;5113479;28;20058;-94
2022/06/11 02:59:29;;;;;;;6.03;3.13;;;;;;;16.63;68.06;98793.78;5118021;28;20564;-95
2022/06/11 03:01:56;;;;;;;6.45;3.97;;;;;;;16.75;68.39;98804.81;5116915;28;20078;-93
2022/06/11 03:04:25;;;;;;;5.55;3.72;;;;;;;16.72;68.08;98810.34;5117872;28;20043;-94
2022/06/11 03:06:52;;;;;;;6.00;4.07;;;;;;;16.67;68.65;98805.19;5116170;28;20032;-93
2022/06/11 03:09:22;;;;;;;5.70;3.42;;;;;;;16.70;68.55;98822.97;5115290;28;20115;-90
2022/06/11 03:11:48;;;;;;;5.35;3.60;;;;;;;16.59;68.51;98810.97;5114402;28;20054;-92
2022/06/11 03:14:15;;;;;;;6.82;3.60;;;;;;;16.67;68.75;98831.19;5114456;28;20101;-92
2022/06/11 03:16:41;;;;;;;5.35;3.50;;;;;;;16.64;68.85;98834.91;5115720;28;20123;-93
2022/06/11 03:19:08;;;;;;;7.28;3.88;;;;;;;16.64;69.09;98834.91;5115090;28;20031;-94
2022/06/11 03:21:36;;;;;;;5.65;3.83;;;;;;;16.54;69.31;98821.06;5114830;28;20063;-93
2022/06/11 03:24:02;;;;;;;6.07;4.18;;;;;;;16.78;68.56;98834.19;5116751;28;20061;-94
2022/06/11 03:26:28;;;;;;;6.35;3.92;;;;;;;16.88;68.36;98846.25;5117719;28;20039;-96
2022/06/11 03:28:54;;;;;;;5.85;4.03;;;;;;;16.81;67.80;98831.41;5118189;28;20082;-95
2022/06/11 03:31:22;;;;;;;7.82;4.30;;;;;;;16.79;67.90;98834.13;5117903;28;20075;-94
2022/06/11 03:33:48;;;;;;;5.33;3.60;;;;;;;16.79;68.00;98852.91;5118441;28;20432;-93
2022/06/11 03:36:17;;;;;;;6.35;3.90;;;;;;;16.75;68.00;98848.66;5118504;28;20081;-94
2022/06/11 03:38:46;;;;;;;7.33;3.90;;;;;;;16.70;68.69;98863.25;5119507;28;20044;-94
2022/06/11 03:41:14;;;;;;;5.97;3.40;;;;;;;16.69;68.69;98854.31;5116900;28;20043;-94
2022/06/11 03:43:40;;;;;;;5.88;3.90;;;;;;;16.47;69.39;98840.25;5115792;28;20032;-94
2022/06/11 03:46:07;;;;;;;5.63;4.28;;;;;;;16.46;69.21;98835.81;5118603;28;20046;-95
2022/06/11 03:48:34;;;;;;;5.78;4.03;;;;;;;16.64;69.10;98868.00;5116109;28;20036;-94
2022/06/11 03:51:01;;;;;;;7.75;4.03;;;;;;;16.52;69.34;98847.13;5116119;28;20052;-94
2022/06/11 03:53:28;;;;;;;5.95;3.75;;;;;;;16.45;69.45;98845.69;5115223;28;20485;-94
2022/06/11 03:55:56;;;;;;;9.70;4.20;;;;;;;16.51;69.77;98849.91;5116285;28;20493;-93
2022/06/11 03:58:22;;;;;;;6.65;3.95;;;;;;;16.51;69.68;98856.13;5115133;28;20036;-95
2022/06/11 04:03:52;;;;;;;7.75;4.15;;;;;;;16.52;70.11;98841.75;5182926;27;20362;-93
2022/06/11 04:06:21;;;;;;;7.00;4.20;;;;;;;16.72;69.77;98853.28;5141230;27;20061;-94
2022/06/11 04:08:46;;;;;;;6.28;4.22;;;;;;;16.89;68.83;98837.22;5135565;27;20043;-92
2022/06/11 04:11:13;;;;;;;9.82;4.63;;;;;;;17.17;68.34;98862.66;5153114;27;20059;-93
2022/06/11 04:13:40;;;;;;;8.98;4.43;;;;;;;17.21;67.80;98840.03;5146810;27;20061;-93
2022/06/11 04:16:07;;;;;;;7.57;4.07;;;;;;;17.28;67.38;98841.44;5139306;27;20178;-93
2022/06/11 04:18:44;;;;;;;7.55;4.30;;;;;;;17.42;67.11;98854.16;5145101;27;20043;-93
2022/06/11 04:21:13;;;;;;;7.70;4.53;;;;;;;17.59;66.50;98854.13;5146645;27;20039;-93
2022/06/11 04:23:41;;;;;;;9.30;5.32;;;;;;;17.75;65.94;98855.97;5144847;27;20493;-93
2022/06/11 04:26:10;;;;;;;7.22;4.72;;;;;;;17.85;65.96;98868.88;5138412;27;20038;-94
2022/06/11 04:28:36;;;;;;;8.90;4.65;;;;;;;17.83;66.10;98873.47;5149861;27;20046;-94
2022/06/11 04:31:04;;;;;;;7.80;4.72;;;;;;;17.76;66.43;98853.22;5153438;27;20050;-93
2022/06/11 04:33:31;;;;;;;6.75;4.53;;;;;;;17.90;66.35;98873.13;5139004;27;20047;-94
2022/06/11 04:35:57;;;;;;;7.80;4.88;;;;;;;17.90;65.90;98871.28;5152799;27;20046;-93
2022/06/11 04:38:24;;;;;;;7.10;4.60;;;;;;;17.92;66.22;98872.09;5148071;27;20039;-93
2022/06/11 04:40:51;;;;;;;7.45;4.65;;;;;;;17.97;66.03;98879.91;5143964;27;20043;-93
2022/06/11 04:43:17;;;;;;;6.60;4.70;;;;;;;18.04;65.98;98871.41;5148081;27;20043;-94
2022/06/11 04:45:43;;;;;;;7.38;4.43;;;;;;;18.15;65.44;98878.00;5144627;27;20050;-92
2022/06/11 04:48:09;;;;;;;6.72;4.55;;;;;;;18.11;65.49;98868.34;5148722;27;20073;-94
2022/06/11 04:50:36;;;;;;;7.68;4.85;;;;;;;18.24;65.28;98866.72;5146759;27;20495;-93
2022/06/11 04:53:02;;;;;;;8.60;4.43;;;;;;;18.81;63.87;98871.53;5142503;27;20511;-93
2022/06/11 04:55:30;;;;;;;6.70;4.63;;;;;;;19.47;61.21;98854.03;5143924;27;20046;-94
2022/06/11 04:57:56;;;;;;;8.20;4.90;;;;;;;19.74;59.82;98854.19;5136168;27;20039;-95
2022/06/11 05:00:24;;;;;;;7.28;4.57;;;;;;;20.00;58.86;98871.41;5132558;27;20067;-94
2022/06/11 05:02:50;;;;;;;7.73;4.03;;;;;;;20.59;57.29;98882.00;5141161;27;20392;-94
2022/06/11 05:05:16;;;;;;;7.63;4.20;;;;;;;21.03;56.33;98888.94;5139376;27;20042;-93
2022/06/11 05:07:43;;;;;;;5.20;3.88;;;;;;;21.21;56.30;98878.72;5138679;27;20122;-93
2022/06/11 05:10:11;;;;;;;6.60;3.90;;;;;;;21.36;54.59;98882.22;5145780;27;20511;-93
2022/06/11 05:12:38;;;;;;;7.75;4.10;;;;;;;20.80;56.28;98874.31;5139441;27;20042;-93
2022/06/11 05:15:05;;;;;;;7.85;3.92;;;;;;;20.93;55.94;98885.16;5132895;27;20035;-93
2022/06/11 05:17:31;;;;;;;7.43;4.20;;;;;;;20.96;55.98;98863.31;5129374;27;20134;-92
2022/06/11 05:19:57;;;;;;;6.72;3.80;;;;;;;21.36;54.82;98876.81;5126360;27;20059;-93
2022/06/11 05:22:23;;;;;;;6.28;3.88;;;;;;;21.36;55.23;98874.09;5125329;27;20074;-93
2022/06/11 05:24:48;;;;;;;5.82;3.88;;;;;;;21.01;56.31;98896.31;5133233;27;20039;-93
2022/06/11 05:27:18;;;;;;;6.22;4.20;;;;;;;20.82;57.33;98903.91;5128084;27;20047;-92
2022/06/11 05:29:53;;;;;;;6.40;3.85;;;;;;;21.07;56.14;98884.22;5130987;27;20054;-94
2022/06/11 05:32:20;;;;;;;6.45;3.90;;;;;;;20.62;57.03;98884.50;5135981;27;20043;-93
2022/06/11 05:34:47;;;;;;;8.50;4.07;;;;;;;20.97;56.11;98888.50;5131083;27;20070;-93
2022/06/11 05:37:13;;;;;;;6.18;4.13;;;;;;;21.43;55.84;98885.41;5129081;27;20529;-93
2022/06/11 05:39:41;;;;;;;5.90;3.88;;;;;;;21.68;54.20;98889.94;5128379;27;20128;-92
2022/06/11 05:42:08;;;;;;;5.63;3.60;;;;;;;21.92;53.88;98880.06;5126897;27;20031;-94
2022/06/11 05:44:34;;;;;;;6.60;4.03;;;;;;;21.88;53.49;98878.56;5124495;27;20059;-94
2022/06/11 05:47:02;;;;;;;5.68;3.80;;;;;;;22.07;53.59;98899.72;5127621;27;20047;-92
2022/06/11 05:49:33;;;;;;;8.55;3.83;;;;;;;21.94;54.55;98886.22;5129980;27;20047;-93
2022/06/11 05:52:03;;;;;;;6.05;3.85;;;;;;;21.57;55.11;98877.16;5131548;27;20039;-94
2022/06/11 05:54:32;;;;;;;6.32;4.00;;;;;;;21.58;55.60;98902.38;5129532;27;20050;-93
2022/06/11 05:56:59;;;;;;;5.95;4.05;;;;;;;21.68;55.91;98898.03;5129247;27;20035;-94
2022/06/11 05:59:29;;;;;;;8.38;4.47;;;;;;;21.64;54.82;98881.19;5123485;27;20126;-94
2022/06/11 06:01:56;;;;;;;7.57;4.00;;;;;;;21.59;54.97;98879.75;5139934;27;20055;-94
2022/06/11 06:04:23;;;;;;;6.88;4.53;;;;;;;21.58;55.50;98888.84;5162998;27;20514;-94
2022/06/11 06:06:49;;;;;;;6.30;4.20;;;;;;;21.13;57.00;98911.69;5160171;27;20046;-95
2022/06/11 06:09:15;;;;;;;6.32;3.83;;;;;;;21.62;55.41;98896.66;5157171;27;20379;-94
2022/06/11 06:11:41;;;;;;;8.52;4.13;;;;;;;21.50;57.17;98921.84;5159057;27;20487;-94
2022/06/11 06:14:07;;;;;;;6.75;4.38;;;;;;;21.54;56.22;98897.19;5158496;27;20047;-94
2022/06/11 06:16:33;;;;;;;6.03;4.30;;;;;;;21.62;55.42;98901.19;5157381;27;20611;-93
2022/06/11 06:19:01;;;;;;;6.50;3.92;;;;;;;21.52;55.26;98899.13;5158269;27;20043;-92
2022/06/11 06:21:30;;;;;;;5.80;4.32;;;;;;;21.56;54.99;98886.25;5158030;27;20046;-93
2022/06/11 06:23:56;;;;;;;8.48;4.35;;;;;;;21.94;54.99;98918.69;5157623;27;20518;-94
2022/06/11 06:26:23;;;;;;;5.05;3.90;;;;;;;22.15;53.99;98910.88;5156207;27;20034;-94
2022/06/11 06:28:49;;;;;;;5.47;4.00;;;;;;;22.09;53.83;98905.91;5158214;27;20037;-93
2022/06/11 06:31:17;;;;;;;7.78;4.38;;;;;;;21.94;53.84;98925.97;5157326;27;20058;-92
2022/06/11 06:33:44;;;;;;;;;;;;;;;22.05;54.59;98941.44;5158540;27;20065;-92
2022/06/11 06:36:11;;;;;;;5.10;3.70;;;;;;;21.63;55.35;98932.69;5159120;27;19964;-92
2022/06/11 06:38:39;;;;;;;6.63;4.22;;;;;;;21.76;55.08;98930.00;5157901;27;20043;-92
2022/06/11 06:41:05;;;;;;;7.25;4.28;;;;;;;21.40;57.11;98951.34;5159536;27;20594;-93
2022/06/11 06:43:32;;;;;;;10.88;4.75;;;;;;;21.74;55.88;98949.91;5157595;27;20549;-93
2022/06/11 06:45:57;;;;;;;7.57;4.80;;;;;;;21.57;55.89;98935.81;5158564;27;20050;-93
2022/06/11 06:48:23;;;;;;;5.88;4.53;;;;;;;21.58;55.46;98924.91;5158934;27;20100;-94
2022/06/11 06:50:49;;;;;;;7.75;4.38;;;;;;;21.49;55.77;98942.66;5158639;27;20042;-94
2022/06/11 06:53:15;;;;;;;6.63;4.38;;;;;;;21.76;56.02;98947.09;5157498;27;20069;-93
2022/06/11 06:55:43;;;;;;;5.93;4.18;;;;;;;21.76;55.41;98944.41;5157377;27;20047;-92
2022/06/11 06:58:08;;;;;;;6.85;4.70;;;;;;;22.00;54.77;98943.63;5156079;27;20062;-93
2022/06/11 07:00:34;;;;;;;10.20;4.80;;;;;;;21.95;54.67;98923.16;5156370;27;20051;-93
2022/06/11 07:03:00;;;;;;;8.05;4.97;;;;;;;22.19;54.87;98944.03;5157240;27;20051;-95
2022/06/11 07:05:26;;;;;;;7.88;5.20;;;;;;;22.28;54.38;98947.97;5156407;27;20030;-94
2022/06/11 07:07:52;;;;;;;7.40;4.78;;;;;;;22.36;54.92;98923.91;5157054;27;20126;-94
2022/06/11 07:10:20;;;;;;;8.45;4.72;;;;;;;22.72;52.83;98925.72;5156853;27;20034;-94
2022/06/11 07:12:47;;;;;;;7.53;4.70;;;;;;;22.90;52.18;98930.72;5155569;27;20059;-93
2022/06/11 07:15:14;;;;;;;6.90;5.03;;;;;;;22.98;53.03;98921.03;5156357;27;20039;-94
2022/06/11 07:17:45;;;;;;;6.38;4.40;;;;;;;23.00;50.87;98929.09;5158303;27;20043;-91
2022/06/11 07:20:18;;;;;;;6.68;4.38;;;;;;;23.11;51.33;98915.56;5152760;27;20038;-93
2022/06/11 07:22:49;;;;;;;6.55;4.35;;;;;;;23.24;50.78;98912.78;5152906;27;20491;-94
2022/06/11 07:25:15;;;;;;;7.88;5.03;;;;;;;23.58;50.37;98930.03;5158009;27;20051;-95
2022/06/11 07:27:49;;;;;;;6.45;4.93;;;;;;;23.69;49.88;98909.34;5157148;27;20031;-92
2022/06/11 07:30:20;;;;;;;6.53;4.70;;;;;;;23.89;49.51;98922.22;5156840;27;20038;-93
2022/06/11 07:32:49;;;;;;;6.22;4.57;;;;;;;24.05;49.36;98927.31;5153160;27;20440;-93
2022/06/11 07:35:17;;;;;;;6.45;4.50;;;;;;;24.18;48.43;98930.75;5155467;27;20034;-93
2022/06/11 07:37:45;;;;;;;8.60;4.73;;;;;;;23.97;48.64;98943.34;5155620;27;20089;-92
2022/06/11 07:40:13;;;;;;;5.40;3.90;;;;;;;24.03;48.45;98926.56;5155947;27;20034;-92
2022/06/11 07:42:38;;;;;;;7.22;5.00;;;;;;;24.18;48.69;98938.03;5156568;27;20039;-94
2022/06/11 07:45:05;;;;;;;8.60;5.03;;;;;;;24.32;48.04;98917.91;5156277;27;20377;-92
2022/06/11 07:50:34;;;;;;;5.82;4.55;;;;;;;24.71;46.18;98940.13;5059857;27;20381;-94
2022/06/11 07:53:02;;;;;;;5.10;4.22;;;;;;;24.59;46.43;98933.81;5050535;28;20051;-93
2022/06/11 07:55:28;;;;;;;7.18;4.72;;;;;;;24.65;46.68;98925.16;5051228;28;20041;-94
2022/06/11 07:57:55;;;;;;;5.75;3.90;;;;;;;24.58;46.14;98924.81;5047040;28;20139;-93
2022/06/11 08:00:24;;;;;;;6.60;4.60;;;;;;;24.61;45.60;98923.69;5052058;28;20100;-92
2022/06/11 08:02:50;;;;;;;5.40;4.22;;;;;;;24.64;46.09;98923.44;5051692;28;20048;-93
2022/06/11 08:05:16;;;;;;;8.88;4.43;;;;;;;24.31;47.26;98943.34;5054823;28;20037;-95
2022/06/11 08:07:43;;;;;;;6.28;4.55;;;;;;;24.16;47.55;98935.44;5051335;28;20550;-92
2022/06/11 08:10:10;;;;;;;6.38;4.40;;;;;;;24.47;46.14;98942.97;5051032;28;20040;-92
2022/06/11 08:12:36;;;;;;;6.43;4.10;;;;;;;24.71;45.59;98951.00;5051344;28;20033;-93
2022/06/11 08:15:03;;;;;;;5.18;4.20;;;;;;;24.72;45.21;98941.81;5050431;28;20487;-94
2022/06/11 08:17:30;;;;;;;5.63;4.15;;;;;;;24.93;44.31;98964.53;5049830;28;20041;-94
2022/06/11 08:19:56;;;;;;;7.03;4.32;;;;;;;25.14;44.93;98953.72;5047184;28;20041;-91
2022/06/11 08:22:22;;;;;;;8.55;4.00;;;;;;;25.46;43.98;98963.75;5051204;28;20056;-95
2022/06/11 08:24:50;;;;;;;7.00;4.28;;;;;;;24.77;44.03;98951.34;5051514;28;20071;-94
2022/06/11 08:27:16;;;;;;;5.50;4.05;;;;;;;24.49;44.36;98947.31;5051637;28;20056;-93
2022/06/11 08:29:42;;;;;;;6.00;3.90;;;;;;;24.95;43.54;98938.06;5050872;28;20061;-94
2022/06/11 08:32:09;;;;;;;5.88;4.03;;;;;;;25.31;43.61;98955.03;5050897;28;20533;-94
2022/06/11 08:34:36;;;;;;;6.18;3.95;;;;;;;25.31;43.40;98959.59;5050281;28;20085;-94
2022/06/11 08:37:02;;;;;;;5.97;4.05;;;;;;;24.89;43.28;98954.03;5051261;28;20095;-94
2022/06/11 08:39:28;;;;;;;5.13;3.85;;;;;;;25.28;42.81;98960.72;5051531;28;20124;-93
2022/06/11 08:41:57;;;;;;;4.50;3.83;;;;;;;25.20;41.69;98946.94;5051568;28;20136;-93
2022/06/11 08:44:24;;;;;;;5.35;3.92;;;;;;;25.29;41.35;98948.88;5050254;28;20120;-92
2022/06/11 08:46:52;;;;;;;6.63;3.88;;;;;;;25.41;42.07;98936.03;5050895;28;20037;-94
2022/06/11 08:49:28;;;;;;;5.95;3.80;;;;;;;25.74;41.76;98953.19;5050623;28;20045;-92
2022/06/11 08:51:58;;;;;;;5.78;4.10;;;;;;;25.75;42.44;98927.69;5049962;28;20499;-92
2022/06/11 08:54:26;;;;;;;5.85;3.97;;;;;;;26.05;41.37;98945.09;5050703;28;20041;-92
2022/06/11 08:56:56;;;;;;;;;;;;;;;25.59;40.63;98971.72;5051485;28;20145;-93
2022/06/11 08:59:50;;;;;;;9.15;3.90;;;;;;;25.42;40.71;98962.28;5050260;28;19917;-92
2022/06/11 09:02:43;;;;;;;6.05;3.80;;;;;;;25.35;41.08;98944.72;5036372;28;20041;-94
2022/06/11 09:05:27;;;;;;;5.75;4.20;;;;;;;24.72;41.40;98959.03;5037204;28;20128;-91
2022/06/11 09:08:05;;;;;;;4.68;3.75;;;;;;;25.36;40.25;98965.53;5037358;28;20095;-92
2022/06/11 09:10:47;;;;;;;5.25;3.55;;;;;;;25.26;40.27;98964.56;5034805;28;20046;-92
2022/06/11 09:13:30;;;;;;;4.30;3.53;;;;;;;25.75;40.56;98957.66;5035199;28;20171;-92
2022/06/11 09:16:09;;;;;;;5.35;4.10;;;;;;;25.43;40.77;98950.38;5036299;28;20048;-92
2022/06/11 09:18:52;;;;;;;6.53;4.45;;;;;;;25.54;40.78;98961.22;5036812;28;20466;-90
2022/06/11 09:21:33;;;;;;;4.60;3.80;;;;;;;25.33;41.06;98935.84;5032036;28;20057;-91
2022/06/11 09:24:36;;;;;;;6.63;3.65;;;;;;;25.64;39.19;98949.56;5034657;28;20037;-93
2022/06/11 09:27:06;;;;;;;4.70;3.83;;;;;;;26.20;39.28;98952.78;5034038;28;20041;-92
2022/06/11 09:29:48;;;;;;;5.13;3.80;;;;;;;26.50;39.05;98931.94;5036014;28;20095;-91
2022/06/11 09:32:25;;;;;;;5.35;3.38;;;;;;;26.72;37.05;98955.44;5035478;28;20041;-94
2022/06/11 09:34:57;;;;;;;6.05;3.50;;;;;;;26.50;37.11;98959.22;5034453;28;20038;-90
2022/06/11 09:37:29;;;;;;;5.07;3.60;;;;;;;26.18;38.24;98948.47;5033911;28;20038;-92
2022/06/11 09:40:06;;;;;;;6.47;3.47;;;;;;;25.94;38.04;98951.50;5037111;28;20036;-93
2022/06/11 09:42:52;;;;;;;6.93;3.78;;;;;;;26.26;38.10;98937.72;5045983;28;20495;-93
2022/06/11 09:45:27;;;;;;;6.88;4.15;;;;;;;26.63;37.11;98920.78;5035283;28;20120;-92
2022/06/11 09:48:09;;;;;;;5.90;3.83;;;;;;;26.95;36.64;98916.97;5039040;28;20084;-95
2022/06/11 09:50:40;;;;;;;5.28;3.60;;;;;;;27.17;35.58;98924.91;5036514;28;20037;-91
2022/06/11 09:53:26;;;;;;;7.88;3.50;;;;;;;27.10;37.31;98926.47;5040367;28;20390;-92
2022/06/11 09:56:02;;;;;;;5.32;3.60;;;;;;;27.09;36.83;98945.72;5029902;28;20045;-93
2022/06/11 09:58:47;;;;;;;5.43;3.70;;;;;;;27.12;37.15;98913.53;5037381;28;20128;-95
2022/06/11 10:01:16;;;;;;;6.65;4.13;;;;;;;27.10;36.11;98901.91;5036129;28;20506;-92
2022/06/11 10:03:49;;;;;;;4.43;3.42;;;;;;;27.17;36.31;98937.69;5035942;28;20519;-93
2022/06/11 10:06:29;;;;;;;5.97;3.85;;;;;;;26.49;37.84;98904.81;5035347;28;20053;-94
2022/06/11 10:08:58;;;;;;;4.38;3.55;;;;;;;26.66;38.15;98931.44;5036523;28;20167;-91
2022/06/11 10:11:29;;;;;;;4.63;3.58;;;;;;;26.64;37.79;98917.94;5035093;28;20041;-93
2022/06/11 10:13:59;;;;;;;5.28;3.72;;;;;;;26.89;37.12;98917.53;5035076;28;20444;-93
2022/06/11 10:16:31;;;;;;;4.68;3.50;;;;;;;26.82;37.32;98925.44;5035153;28;20483;-94
2022/06/11 10:19:21;;;;;;;5.60;3.58;;;;;;;26.83;38.29;98916.25;5034529;28;20140;-91
2022/06/11 10:21:55;;;;;;;4.30;3.35;;;;;;;27.02;36.26;98926.31;5034287;28;20061;-93
2022/06/11 10:24:26;;;;;;;4.80;3.50;;;;;;;27.09;37.17;98904.75;5035071;28;20136;-92
2022/06/11 10:26:56;;;;;;;5.10;3.60;;;;;;;27.47;35.21;98920.31;5033453;28;20376;-92
2022/06/11 10:29:31;;;;;;;5.00;3.80;;;;;;;27.20;36.08;98908.22;5028303;28;20499;-93
2022/06/11 10:32:05;;;;;;;5.60;3.33;;;;;;;27.20;35.08;98924.63;5032181;28;20072;-92
2022/06/11 10:34:37;;;;;;;3.95;3.22;;;;;;;27.24;36.05;98906.97;5034547;28;20041;-92
2022/06/11 10:37:14;;;;;;;4.25;3.40;;;;;;;27.69;36.11;98912.81;5035159;28;20037;-93
2022/06/11 10:39:47;;;;;;;4.05;3.47;;;;;;;27.29;36.31;98917.47;5035159;28;20483;-93
2022/06/11 10:42:18;;;;;;;4.50;3.28;;;;;;;27.10;36.23;98901.03;5034285;28;20037;-93
2022/06/11 10:44:47;;;;;;;4.97;3.30;;;;;;;27.08;35.82;98917.56;5033482;28;20088;-93
2022/06/11 10:47:22;;;;;;;5.05;3.40;;;;;;;27.07;36.33;98887.69;5036284;28;20048;-92
2022/06/11 10:49:53;;;;;;;5.15;3.30;;;;;;;26.29;36.07;98915.66;5036945;28;20045;-92
2022/06/11 10:52:29;;;;;;;8.07;3.72;;;;;;;26.28;36.77;98927.53;5033924;28;20506;-93
2022/06/11 10:54:55;;;;;;;4.97;3.13;;;;;;;26.48;36.00;98900.34;5030266;28;20529;-95
2022/06/11 10:57:25;;;;;;;5.80;3.47;;;;;;;26.54;35.52;98906.09;5035184;28;20068;-94
2022/06/11 10:59:58;;;;;;;4.78;3.70;;;;;;;26.84;35.93;98918.81;5034107;28;20430;-92
2022/06/11 11:02:28;;;;;;;5.82;3.42;;;;;;;26.56;35.86;98908.72;5035611;28;20053;-92
2022/06/11 11:04:59;;;;;;;5.78;3.60;;;;;;;26.98;37.90;98903.94;5036443;28;20048;-91
2022/06/11 11:07:25;;;;;;;3.97;3.20;;;;;;;27.21;34.34;98893.59;5034026;28;20044;-93
2022/06/11 11:09:58;;;;;;;4.95;3.47;;;;;;;26.64;36.18;98917.06;5036365;28;20120;-92
2022/06/11 11:12:29;;;;;;;4.97;3.45;;;;;;;26.83;35.89;98899.88;5032657;28;20048;-91
2022/06/11 11:15:02;;;;;;;14.60;3.50;;;;;;;26.76;36.59;98913.25;5033940;28;20037;-92
2022/06/11 11:17:32;;;;;;;4.35;2.90;;;;;;;27.06;35.22;98881.34;5031793;28;20045;-91
2022/06/11 11:23:17;;;;;;;4.50;3.30;;;;;;;27.03;34.98;98885.25;5105411;27;20372;-94
2022/06/11 11:25:47;;;;;;;6.10;3.28;;;;;;;27.17;34.78;98888.53;5072463;28;20045;-92
2022/06/11 11:28:20;;;;;;;4.53;3.13;;;;;;;27.42;36.26;98890.72;5070641;28;20047;-92
2022/06/11 11:30:55;;;;;;;4.75;3.40;;;;;;;27.29;35.25;98892.88;5071726;28;20040;-93
2022/06/11 11:33:24;;;;;;;5.97;3.40;;;;;;;27.23;35.79;98897.03;5068967;28;20075;-93
2022/06/11 11:36:16;;;;;;;4.80;3.40;;;;;;;26.56;36.46;98887.75;5062641;28;20117;-93
2022/06/11 11:38:43;;;;;;;4.65;3.40;;;;;;;27.17;36.49;98883.06;5072404;28;20037;-94
2022/06/11 11:41:24;;;;;;;6.25;3.40;;;;;;;27.52;35.64;98895.28;5071816;28;20041;-93
2022/06/11 11:43:51;;;;;;;4.43;3.22;;;;;;;27.66;35.29;98887.50;5071067;28;20041;-93
2022/06/11 11:46:21;;;;;;;6.03;3.10;;;;;;;27.22;34.90;98872.63;5072864;28;20127;-94
2022/06/11 11:48:52;;;;;;;4.47;3.42;;;;;;;27.31;34.88;98881.81;5065987;28;20045;-94
2022/06/11 11:51:23;;;;;;;5.43;3.45;;;;;;;27.01;36.32;98883.66;5060709;28;20037;-94
2022/06/11 11:53:56;;;;;;;5.18;3.45;;;;;;;27.46;35.74;98883.09;5071314;28;20501;-92
2022/06/11 11:56:36;;;;;;;4.95;3.50;;;;;;;27.41;35.06;98889.00;5076627;28;20044;-93
2022/06/11 11:59:08;;;;;;;4.60;3.40;;;;;;;27.28;36.71;98885.69;5071732;28;20456;-92